Time;durP1;ratioP1;P1;durP2;ratioP2;P2;SDS_P1;SDS_P2;PMS_P1;PMS_P2;Temp;Humidity;BMP_temperature;BMP_pressure;BME280_temperature;BME280_humidity;BME280_pressure;Samples;Min_cycle;Max_cycle;Signal;HPM_P1;HPM_P2
2022/02/01 00:00:56;;;;;;;0.97;0.97;;;6.50;44.90;;;;;;10462231;28;20232;-73
2022/02/01 00:06:09;;;;;;;2.87;1.03;;;6.50;44.70;;;;;;10464866;28;20673;-73
2022/02/01 00:11:26;;;;;;;1.00;1.00;;;6.50;44.60;;;;;;10463610;28;20232;-73
2022/02/01 00:33:19;;;;;;;0.83;0.83;;;6.40;44.70;;;;;;10439030;28;20242;-73
2022/02/01 00:38:26;;;;;;;1.20;1.10;;;6.30;44.60;;;;;;10463818;28;20583;-73
2022/02/01 00:43:31;;;;;;;1.10;0.90;;;6.20;44.50;;;;;;10463611;28;20243;-73
2022/02/01 00:48:34;;;;;;;1.00;1.00;;;6.10;44.60;;;;;;10464180;28;20229;-73
2022/02/01 00:53:39;;;;;;;0.90;0.90;;;6.10;44.80;;;;;;10465974;28;20233;-73
2022/02/01 00:58:45;;;;;;;0.80;0.80;;;6.00;45.00;;;;;;10463386;28;20244;-73
2022/02/01 01:03:48;;;;;;;0.90;0.90;;;6.00;45.20;;;;;;10461065;28;20225;-73
2022/02/01 01:08:51;;;;;;;0.70;0.70;;;5.90;45.00;;;;;;10466538;28;20243;-73
2022/02/01 01:14:39;;;;;;;0.80;0.80;;;5.90;44.90;;;;;;10469108;28;20247;-73
2022/02/01 01:57:09;;;;;;;1.50;1.40;;;5.70;47.00;;;;;;10510095;28;20231;-73
2022/02/01 02:02:13;;;;;;;1.50;1.40;;;5.70;47.30;;;;;;10510535;28;20242;-73
2022/02/01 02:07:17;;;;;;;1.60;1.50;;;5.70;47.40;;;;;;10509985;28;20289;-73
2022/02/01 02:12:37;;;;;;;1.60;1.50;;;5.70;47.00;;;;;;10510143;28;20691;-73
2022/02/01 02:17:41;;;;;;;1.33;1.30;;;5.60;47.00;;;;;;10510718;28;20234;-73
2022/02/01 02:22:46;;;;;;;1.33;1.33;;;5.60;47.10;;;;;;10502283;28;20223;-73
2022/02/01 02:27:49;;;;;;;1.23;1.20;;;5.60;47.20;;;;;;10510556;28;20718;-73
2022/02/01 02:32:52;;;;;;;1.10;1.10;;;5.60;46.90;;;;;;10507007;28;20227;-73
2022/02/01 02:37:57;;;;;;;1.00;1.00;;;5.50;46.80;;;;;;10511194;28;20259;-73
2022/02/01 02:48:21;;;;;;;0.90;0.90;;;5.40;46.70;;;;;;10510809;28;20224;-73
2022/02/01 02:53:25;;;;;;;0.90;0.90;;;5.40;46.80;;;;;;10508728;28;20241;-73
2022/02/01 02:58:29;;;;;;;1.10;1.10;;;5.50;46.90;;;;;;10508464;28;20232;-74
2022/02/01 03:03:32;;;;;;;1.17;1.00;;;5.40;46.70;;;;;;10510287;28;20234;-73
2022/02/01 03:08:38;;;;;;;1.17;1.17;;;5.40;46.60;;;;;;10505948;28;20228;-74
2022/02/01 03:13:47;;;;;;;0.90;0.90;;;5.50;47.00;;;;;;10514005;28;20311;-73
2022/02/01 03:24:12;;;;;;;1.00;1.00;;;5.60;46.30;;;;;;10508924;28;20238;-73
2022/02/01 03:29:15;;;;;;;1.30;1.20;;;5.70;46.20;;;;;;10506748;28;20319;-73
2022/02/01 03:34:19;;;;;;;1.73;1.63;;;5.80;46.00;;;;;;10503107;28;20267;-73
2022/02/01 03:39:24;;;;;;;1.70;1.60;;;5.80;45.60;;;;;;10505677;28;20905;-73
2022/02/01 03:44:27;;;;;;;1.73;1.63;;;5.80;45.70;;;;;;10507783;28;20251;-73
2022/02/01 03:49:31;;;;;;;1.80;1.70;;;5.70;46.00;;;;;;10510587;28;20580;-73
2022/02/01 03:54:36;;;;;;;2.00;1.80;;;5.60;45.80;;;;;;10505289;28;20219;-73
2022/02/01 03:59:39;;;;;;;2.20;2.10;;;5.40;46.10;;;;;;10508304;28;20224;-72
2022/02/01 04:04:43;;;;;;;2.40;2.30;;;5.30;46.30;;;;;;10508971;28;20270;-73
2022/02/01 04:09:50;;;;;;;2.40;2.20;;;5.30;46.20;;;;;;10503402;28;20311;-73
2022/02/01 04:14:56;;;;;;;2.40;2.20;;;5.20;46.50;;;;;;10505711;28;20227;-73
2022/02/01 04:19:59;;;;;;;2.67;2.47;;;5.10;46.30;;;;;;10505634;28;20243;-73
2022/02/01 04:25:04;;;;;;;2.47;2.27;;;5.10;46.20;;;;;;10502364;28;20224;-73
2022/02/01 04:30:09;;;;;;;2.83;2.63;;;5.10;46.30;;;;;;10506409;28;20330;-73
2022/02/01 04:35:15;;;;;;;3.37;3.07;;;5.10;46.20;;;;;;10506719;28;20560;-72
2022/02/01 04:40:19;;;;;;;4.50;4.10;;;5.10;46.20;;;;;;10506321;28;20294;-73
2022/02/01 04:45:24;;;;;;;5.90;3.90;;;5.10;46.30;;;;;;10509746;28;20233;-72
2022/02/01 04:50:30;;;;;;;4.80;4.40;;;5.10;46.20;;;;;;10509285;28;20319;-73
2022/02/01 04:55:49;;;;;;;5.80;5.20;;;5.10;46.00;;;;;;10514239;28;20315;-72
2022/02/01 05:00:53;;;;;;;5.43;4.73;;;5.00;46.20;;;;;;10508063;28;20242;-73
2022/02/01 05:05:57;;;;;;;5.80;5.30;;;5.00;46.00;;;;;;10514879;28;20741;-73
2022/02/01 05:11:01;;;;;;;7.97;6.30;;;5.00;45.90;;;;;;10513337;28;20240;-73
2022/02/01 05:16:08;;;;;;;6.47;5.87;;;5.10;46.10;;;;;;10509388;28;20426;-73
2022/02/01 05:21:18;;;;;;;7.50;6.77;;;5.10;45.90;;;;;;10508298;28;20224;-73
2022/02/01 05:26:25;;;;;;;6.87;6.17;;;5.10;45.70;;;;;;10507787;28;21054;-73
2022/02/01 05:31:29;;;;;;;7.47;6.73;;;5.10;45.90;;;;;;10511824;28;20327;-73
2022/02/01 05:36:32;;;;;;;8.07;6.80;;;5.10;45.80;;;;;;10517030;28;20235;-73
2022/02/01 05:41:37;;;;;;;7.30;6.60;;;5.10;45.50;;;;;;10514016;28;20605;-73
2022/02/01 05:46:41;;;;;;;7.70;6.90;;;5.10;45.50;;;;;;10506681;28;20220;-73
2022/02/01 05:51:49;;;;;;;7.83;7.03;;;5.20;45.40;;;;;;10503474;28;20240;-74
2022/02/01 05:56:54;;;;;;;7.33;6.63;;;5.20;45.30;;;;;;10502880;28;20251;-73
2022/02/01 06:01:59;;;;;;;7.60;6.90;;;5.20;45.20;;;;;;10498535;28;20236;-73
2022/02/01 06:07:04;;;;;;;7.07;6.37;;;5.30;45.10;;;;;;10502097;28;20259;-73
2022/02/01 06:12:10;;;;;;;6.93;6.33;;;5.30;44.90;;;;;;10504933;28;20241;-74
2022/02/01 06:17:13;;;;;;;7.47;6.63;;;5.40;45.30;;;;;;10503736;28;20318;-74
2022/02/01 06:22:16;;;;;;;7.30;6.60;;;5.40;44.70;;;;;;10510510;28;20255;-74
2022/02/01 06:27:21;;;;;;;6.83;6.20;;;5.50;44.80;;;;;;10505582;28;20864;-74
2022/02/01 06:32:27;;;;;;;6.73;6.13;;;5.50;44.80;;;;;;10504325;28;20640;-74
2022/02/01 06:37:30;;;;;;;7.07;6.37;;;5.50;44.60;;;;;;10504575;28;20228;-74
2022/02/01 06:42:36;;;;;;;6.87;6.10;;;5.50;44.70;;;;;;10503512;28;20582;-74
2022/02/01 06:47:39;;;;;;;9.93;8.93;;;5.50;44.80;;;;;;10507856;28;20600;-74
2022/02/01 06:52:42;;;;;;;9.07;8.17;;;5.50;44.60;;;;;;10507052;28;20727;-74
2022/02/01 06:57:47;;;;;;;7.97;6.90;;;5.50;44.70;;;;;;10510019;28;20234;-74
2022/02/01 07:02:50;;;;;;;7.00;6.23;;;5.50;44.90;;;;;;10509165;28;20236;-74
2022/02/01 07:07:53;;;;;;;6.60;6.00;;;5.40;44.70;;;;;;10504594;28;20232;-73
2022/02/01 07:12:58;;;;;;;5.67;5.17;;;5.40;44.80;;;;;;10507924;28;20614;-74
2022/02/01 07:18:01;;;;;;;5.77;5.27;;;5.50;45.10;;;;;;10504744;28;20695;-74
2022/02/01 07:23:10;;;;;;;5.00;4.50;;;5.50;45.10;;;;;;10465085;28;20232;-74
2022/02/01 07:28:17;;;;;;;4.87;4.37;;;5.50;45.10;;;;;;10465243;28;20311;-74
2022/02/01 07:33:20;;;;;;;6.70;5.10;;;5.40;45.40;;;;;;10461990;28;20243;-74
2022/02/01 07:38:25;;;;;;;5.83;3.83;;;5.50;45.20;;;;;;10462885;28;20242;-74
2022/02/01 07:43:31;;;;;;;6.97;4.27;;;5.50;45.20;;;;;;10462800;28;20240;-74
2022/02/01 07:48:35;;;;;;;5.73;4.07;;;5.50;45.40;;;;;;10470016;28;20229;-74
2022/02/01 07:53:38;;;;;;;5.87;3.40;;;5.50;45.20;;;;;;10465294;28;20716;-74
2022/02/01 07:58:43;;;;;;;9.47;3.67;;;5.50;45.20;;;;;;10461132;28;20290;-74
2022/02/01 08:03:46;;;;;;;8.20;3.03;;;5.50;45.00;;;;;;10464563;28;20224;-74
2022/02/01 08:08:49;;;;;;;7.97;3.47;;;5.60;45.10;;;;;;10461744;28;20225;-74
2022/02/01 08:19:25;;;;;;;11.57;5.43;;;5.60;44.90;;;;;;10506475;28;20224;-74
2022/02/01 08:24:29;;;;;;;11.37;3.63;;;5.60;44.90;;;;;;10508910;28;20589;-74
2022/02/01 08:29:33;;;;;;;8.97;3.40;;;5.60;44.90;;;;;;10511091;28;20227;-74
2022/02/01 08:34:37;;;;;;;7.97;3.13;;;5.60;44.90;;;;;;10513640;28;20567;-74
2022/02/01 08:39:40;;;;;;;5.63;2.97;;;5.60;44.70;;;;;;10515128;28;20228;-75
2022/02/01 08:44:46;;;;;;;8.60;2.90;;;5.60;44.60;;;;;;10511110;28;20224;-75
2022/02/01 08:49:49;;;;;;;7.43;2.60;;;5.60;44.60;;;;;;10512992;28;20219;-75
2022/02/01 08:54:54;;;;;;;7.17;3.10;;;5.60;44.30;;;;;;10511605;28;20228;-75
2022/02/01 09:00:04;;;;;;;9.90;3.40;;;5.60;44.20;;;;;;10508363;28;20235;-75
2022/02/01 09:05:08;;;;;;;7.93;3.33;;;5.60;44.00;;;;;;10494394;28;20303;-74
2022/02/01 09:10:13;;;;;;;12.07;3.23;;;5.60;44.10;;;;;;10469968;28;20233;-74
2022/02/01 09:15:17;;;;;;;9.70;3.50;;;5.70;44.00;;;;;;10468241;28;20242;-74
2022/02/01 09:20:30;;;;;;;8.03;3.20;;;5.60;43.80;;;;;;10471407;28;20236;-75
2022/02/01 09:25:34;;;;;;;10.07;3.43;;;5.60;43.70;;;;;;10467065;28;20225;-75
2022/02/01 09:30:39;;;;;;;10.73;3.30;;;5.60;43.80;;;;;;10508128;28;20230;-74
2022/02/01 09:35:42;;;;;;;8.00;2.67;;;5.60;43.80;;;;;;10513565;28;20242;-75
2022/02/01 09:40:46;;;;;;;9.93;3.50;;;5.60;43.80;;;;;;10487899;28;20238;-75
2022/02/01 09:45:55;;;;;;;8.97;2.93;;;5.60;43.90;;;;;;10467332;28;20245;-75
2022/02/01 09:51:18;;;;;;;11.33;3.37;;;5.60;43.80;;;;;;10511674;28;20232;-75
2022/02/01 09:56:38;;;;;;;14.17;3.20;;;5.70;43.90;;;;;;10507779;28;20231;-75
2022/02/01 10:01:46;;;;;;;8.77;2.80;;;5.70;43.90;;;;;;10514884;28;20242;-74
2022/02/01 10:06:50;;;;;;;7.70;2.80;;;5.70;43.60;;;;;;10513970;28;20228;-74
2022/02/01 10:12:15;;;;;;;10.43;3.10;;;5.70;43.80;;;;;;10509514;28;20223;-75
2022/02/01 10:17:27;;;;;;;10.70;2.73;;;5.70;43.80;;;;;;10509410;28;20288;-74
2022/02/01 10:22:32;;;;;;;11.10;2.57;;;5.70;43.60;;;;;;10506729;28;20263;-74
2022/02/01 10:27:41;;;;;;;8.53;2.50;;;5.70;43.70;;;;;;10507859;28;20311;-74
2022/02/01 10:33:10;;;;;;;6.53;2.20;;;5.70;43.40;;;;;;10510606;28;20228;-74
2022/02/01 10:38:17;;;;;;;6.83;2.70;;;5.80;43.80;;;;;;10466575;28;20253;-74
2022/02/01 10:43:23;;;;;;;8.87;2.63;;;5.80;43.60;;;;;;10462858;28;20233;-74
2022/02/01 10:48:29;;;;;;;9.13;2.90;;;5.90;43.50;;;;;;10467335;28;20232;-74
2022/02/01 10:53:32;;;;;;;7.67;2.60;;;5.90;43.50;;;;;;10461268;28;20243;-74
2022/02/01 10:58:36;;;;;;;10.77;2.77;;;6.00;43.50;;;;;;10465193;28;20604;-74
2022/02/01 11:03:44;;;;;;;7.57;2.97;;;6.00;43.50;;;;;;10463334;28;20643;-74
2022/02/01 11:08:48;;;;;;;9.00;2.57;;;6.00;43.60;;;;;;10484565;28;20224;-74
2022/02/01 11:13:56;;;;;;;7.27;2.73;;;6.10;43.60;;;;;;10504749;28;20323;-74
2022/02/01 11:19:04;;;;;;;7.33;2.57;;;6.10;43.60;;;;;;10507973;28;20352;-75
2022/02/01 11:24:09;;;;;;;7.07;2.27;;;6.20;43.50;;;;;;10461723;28;20597;-74
2022/02/01 11:29:30;;;;;;;4.63;1.90;;;6.20;43.20;;;;;;10465617;28;20320;-74
2022/02/01 11:34:38;;;;;;;6.77;1.80;;;6.20;43.00;;;;;;10467184;28;20704;-74
2022/02/01 11:39:50;;;;;;;5.47;1.90;;;6.20;42.90;;;;;;10462326;28;20231;-74
2022/02/01 11:45:01;;;;;;;5.10;2.03;;;6.30;42.80;;;;;;10460719;28;20784;-74
2022/02/01 11:50:14;;;;;;;6.43;2.03;;;6.30;42.90;;;;;;10463777;28;20244;-74
2022/02/01 11:55:20;;;;;;;7.27;2.23;;;6.30;43.70;;;;;;10465482;28;20239;-74
2022/02/01 12:00:39;;;;;;;6.20;2.07;;;6.30;43.20;;;;;;10453336;28;20231;-74
2022/02/01 12:05:43;;;;;;;5.70;2.27;;;6.30;43.00;;;;;;10459499;28;20232;-74
2022/02/01 12:10:49;;;;;;;5.70;2.00;;;6.30;43.00;;;;;;10462814;28;20232;-74
2022/02/01 12:15:54;;;;;;;5.43;2.07;;;6.40;43.00;;;;;;10459761;28;20236;-74
2022/02/01 12:21:29;;;;;;;7.47;1.97;;;6.30;42.80;;;;;;10458941;28;20236;-75
2022/02/01 12:26:36;;;;;;;3.63;1.87;;;6.30;42.60;;;;;;10452464;28;20227;-75
2022/02/01 12:31:40;;;;;;;3.83;1.93;;;6.30;42.90;;;;;;10447749;28;20237;-74
2022/02/01 12:36:48;;;;;;;4.73;2.40;;;6.40;43.00;;;;;;10454733;28;20232;-74
2022/02/01 12:42:00;;;;;;;6.07;3.20;;;6.40;43.00;;;;;;10446117;28;20243;-76
2022/02/01 12:47:06;;;;;;;4.03;2.27;;;6.50;43.00;;;;;;10457204;28;21010;-76
2022/02/01 12:52:32;;;;;;;4.20;2.30;;;6.50;42.60;;;;;;10457361;28;20228;-76
2022/02/01 12:57:37;;;;;;;6.03;2.47;;;6.40;42.80;;;;;;10457976;28;20236;-76
2022/02/01 13:02:41;;;;;;;4.63;2.00;;;6.40;42.70;;;;;;10453081;28;20229;-76
2022/02/01 13:07:55;;;;;;;3.70;2.00;;;6.40;42.80;;;;;;10462905;28;20225;-76
2022/02/01 13:13:19;;;;;;;3.20;2.00;;;6.30;42.80;;;;;;10459104;28;20254;-74
2022/02/01 13:20:03;;;;;;;3.83;1.67;;;6.40;42.90;;;;;;10459303;28;20710;-76
2022/02/01 13:23:48;;;;;;;6.07;2.20;;;6.40;42.80;;;;;;10480143;28;20228;-76
2022/02/01 13:29:07;;;;;;;3.93;2.37;;;6.40;42.90;;;;;;10496533;28;20229;-75
2022/02/01 13:34:13;;;;;;;3.97;1.93;;;6.40;42.80;;;;;;10499682;28;20238;-76
2022/02/01 13:39:23;;;;;;;4.70;1.90;;;6.40;42.70;;;;;;10495512;28;20238;-77
2022/02/01 13:44:29;;;;;;;3.80;2.10;;;6.40;42.50;;;;;;10495819;28;20231;-75
2022/02/01 13:49:32;;;;;;;4.53;1.90;;;6.40;42.70;;;;;;10493232;28;20232;-74
2022/02/01 13:54:53;;;;;;;3.57;1.90;;;6.40;42.60;;;;;;10491698;28;21070;-75
2022/02/01 14:00:10;;;;;;;3.83;1.80;;;6.40;42.60;;;;;;10493143;28;20228;-74
2022/02/01 14:05:23;;;;;;;3.70;1.87;;;6.30;42.30;;;;;;10491584;28;20245;-74
2022/02/01 14:10:35;;;;;;;4.80;2.00;;;6.30;42.60;;;;;;10494166;28;20651;-74
2022/02/01 14:26:42;;;;;;;3.37;1.70;;;6.30;42.50;;;;;;10487584;28;20687;-74
2022/02/01 14:37:13;;;;;;;2.53;1.53;;;6.40;42.30;;;;;;10495916;28;20231;-74
2022/02/01 14:47:38;;;;;;;3.97;1.80;;;6.40;42.50;;;;;;10495531;28;20228;-74
2022/02/01 14:52:41;;;;;;;5.00;2.00;;;6.40;42.50;;;;;;10492938;28;20243;-73
2022/02/01 15:13:53;;;;;;;5.67;2.00;;;6.20;42.50;;;;;;10508721;28;20231;-74
2022/02/01 15:19:04;;;;;;;5.27;2.00;;;6.10;42.40;;;;;;10509344;28;20228;-73
2022/02/01 15:24:07;;;;;;;3.47;1.73;;;5.90;42.60;;;;;;10504160;28;20724;-74
2022/02/01 15:29:10;;;;;;;3.77;1.80;;;5.80;42.90;;;;;;10501313;28;20231;-74
2022/02/01 15:34:15;;;;;;;2.90;1.60;;;5.70;43.30;;;;;;10499842;28;20235;-73
2022/02/01 16:00:39;;;;;;;2.70;1.80;;;5.30;43.60;;;;;;10499817;28;20227;-73
2022/02/01 16:05:44;;;;;;;4.17;1.90;;;5.20;43.70;;;;;;10502901;28;20227;-74
2022/02/01 16:10:53;;;;;;;3.17;1.90;;;5.30;43.90;;;;;;10499457;28;20319;-73
2022/02/01 16:15:56;;;;;;;1.90;1.50;;;5.30;44.00;;;;;;10502284;28;20238;-74
2022/02/01 16:21:01;;;;;;;3.63;1.97;;;5.30;43.90;;;;;;10502294;28;20247;-74
2022/02/01 16:26:24;;;;;;;3.37;1.70;;;5.30;44.00;;;;;;10506929;28;20227;-73
2022/02/01 16:31:30;;;;;;;2.67;1.47;;;5.30;43.90;;;;;;10505238;28;20231;-74
2022/02/01 16:36:39;;;;;;;2.90;1.60;;;5.30;44.00;;;;;;10499739;28;20224;-73
2022/02/01 16:41:44;;;;;;;4.50;2.10;;;5.30;44.10;;;;;;10514913;28;20254;-73
2022/02/01 16:47:07;;;;;;;3.73;2.10;;;5.40;44.00;;;;;;10513390;28;20242;-73
2022/02/01 16:52:36;;;;;;;2.23;1.57;;;5.40;44.00;;;;;;10510454;28;20228;-72
2022/02/01 16:57:49;;;;;;;2.93;1.87;;;5.50;44.00;;;;;;10519483;28;20231;-73
2022/02/01 17:02:52;;;;;;;3.00;1.63;;;5.50;44.00;;;;;;10525415;28;20232;-73
2022/02/01 17:07:57;;;;;;;2.30;1.77;;;5.60;43.90;;;;;;10521385;28;20235;-75
2022/02/01 17:13:08;;;;;;;3.77;2.23;;;5.60;43.80;;;;;;10519880;28;20228;-75
2022/02/01 17:23:33;;;;;;;2.90;2.03;;;5.70;43.70;;;;;;10516704;28;20228;-75
2022/02/01 17:28:36;;;;;;;3.37;1.87;;;5.80;43.70;;;;;;10514685;28;20223;-75
2022/02/01 17:33:40;;;;;;;3.47;2.50;;;5.80;43.70;;;;;;10515720;28;20224;-75
2022/02/01 17:38:46;;;;;;;2.50;1.87;;;5.80;43.80;;;;;;10522928;28;20734;-75
2022/02/01 17:43:50;;;;;;;3.10;2.10;;;5.80;44.00;;;;;;10516468;28;20228;-75
2022/02/01 17:48:54;;;;;;;2.17;1.70;;;5.80;43.90;;;;;;10518819;28;20323;-75
2022/02/01 17:54:14;;;;;;;1.87;1.40;;;5.80;43.80;;;;;;10518181;28;20232;-75
2022/02/01 17:59:17;;;;;;;2.80;1.40;;;5.80;43.80;;;;;;10518533;28;20235;-75
2022/02/01 18:04:21;;;;;;;1.87;1.47;;;5.80;43.70;;;;;;10525475;28;20269;-75
2022/02/01 18:09:27;;;;;;;1.97;1.40;;;5.80;43.80;;;;;;10504488;28;20239;-75
2022/02/01 18:14:56;;;;;;;2.70;1.83;;;5.80;43.80;;;;;;10510313;28;20232;-74
2022/02/01 18:19:57;;;;;;;2.03;1.63;;;5.90;43.80;;;;;;10516352;28;20245;-76
2022/02/01 18:25:01;;;;;;;3.80;2.30;;;5.80;43.80;;;;;;10511494;28;20232;-75
2022/02/01 18:30:17;;;;;;;3.13;2.60;;;6.00;43.70;;;;;;10511756;28;20230;-75
2022/02/01 18:35:24;;;;;;;2.63;2.20;;;5.90;43.80;;;;;;10512955;28;20233;-75
2022/02/01 18:40:31;;;;;;;4.63;2.30;;;5.90;43.90;;;;;;10518235;28;20323;-75
2022/02/01 18:45:39;;;;;;;2.27;2.03;;;5.90;43.80;;;;;;10523636;28;20230;-75
2022/02/01 18:50:53;;;;;;;2.20;1.77;;;5.80;43.90;;;;;;10517868;28;20675;-75
2022/02/01 19:06:56;;;;;;;2.10;1.93;;;5.80;45.10;;;;;;10515793;28;20231;-76
2022/02/01 19:12:01;;;;;;;2.70;1.87;;;5.80;44.30;;;;;;10524247;28;20249;-77
2022/02/01 19:17:13;;;;;;;2.23;1.90;;;5.80;44.50;;;;;;10524623;28;20224;-76
2022/02/01 19:22:18;;;;;;;1.97;1.87;;;5.70;44.60;;;;;;10518902;28;20750;-76
2022/02/01 19:27:23;;;;;;;2.00;1.80;;;5.70;44.40;;;;;;10520669;28;20262;-75
2022/02/01 19:32:31;;;;;;;2.17;1.97;;;5.80;44.70;;;;;;10508934;28;20266;-75
2022/02/01 19:37:35;;;;;;;2.37;2.17;;;5.80;44.90;;;;;;10519681;28;20516;-75
2022/02/01 19:42:51;;;;;;;3.50;1.70;;;5.80;44.70;;;;;;10513999;28;20708;-76
2022/02/01 19:47:54;;;;;;;2.23;2.03;;;5.80;44.70;;;;;;10517114;28;20653;-76
2022/02/01 19:52:57;;;;;;;2.20;2.00;;;5.90;44.80;;;;;;10516034;28;20232;-76
2022/02/01 19:58:09;;;;;;;2.43;1.90;;;5.90;44.90;;;;;;10516170;28;20238;-75
2022/02/01 20:03:15;;;;;;;1.80;1.63;;;5.90;45.20;;;;;;10522380;28;20256;-76
2022/02/01 20:08:19;;;;;;;1.83;1.73;;;5.90;45.00;;;;;;10523250;28;20234;-77
2022/02/01 20:13:24;;;;;;;1.77;1.57;;;5.90;45.20;;;;;;10512299;28;20237;-75
2022/02/01 20:18:27;;;;;;;1.80;1.70;;;6.00;45.30;;;;;;10517520;28;20234;-76
2022/02/01 20:23:31;;;;;;;1.50;1.40;;;6.00;45.10;;;;;;10511117;28;20227;-76
2022/02/01 20:28:36;;;;;;;1.90;1.43;;;6.10;45.30;;;;;;10522227;28;20235;-75
2022/02/01 20:33:42;;;;;;;1.77;1.63;;;6.10;45.30;;;;;;10519562;28;20606;-75
2022/02/01 20:38:49;;;;;;;2.30;1.40;;;6.20;45.30;;;;;;10512426;28;20719;-75
2022/02/01 20:43:54;;;;;;;1.70;1.60;;;6.20;45.30;;;;;;10514042;28;20223;-75
2022/02/01 20:48:58;;;;;;;1.43;1.33;;;6.20;45.50;;;;;;10525708;28;20231;-76
2022/02/01 20:54:01;;;;;;;1.50;1.40;;;6.20;45.30;;;;;;10534971;28;20232;-75
2022/02/01 20:59:06;;;;;;;1.57;1.30;;;6.20;45.50;;;;;;10535301;28;20232;-76
2022/02/01 21:04:09;;;;;;;1.30;1.20;;;6.20;45.60;;;;;;10535534;28;20236;-76
2022/02/01 21:09:13;;;;;;;1.60;1.50;;;6.20;45.60;;;;;;10535198;28;20318;-76
2022/02/01 21:14:24;;;;;;;1.63;1.23;;;6.20;45.80;;;;;;10533682;28;20229;-76
2022/02/01 21:19:27;;;;;;;1.47;1.37;;;6.20;45.80;;;;;;10533024;28;20291;-76
2022/02/01 21:24:31;;;;;;;1.57;1.23;;;6.20;45.70;;;;;;10533316;28;20231;-77
2022/02/01 21:29:38;;;;;;;1.40;1.30;;;6.30;45.70;;;;;;10537879;28;20227;-76
2022/02/01 21:34:42;;;;;;;1.23;1.20;;;6.30;46.00;;;;;;10540966;28;20340;-77
2022/02/01 21:39:47;;;;;;;1.50;1.40;;;6.40;45.80;;;;;;10540079;28;20228;-77
2022/02/01 21:44:52;;;;;;;1.63;1.50;;;6.40;46.10;;;;;;10541187;28;20227;-76
2022/02/01 21:49:55;;;;;;;1.50;1.40;;;6.50;46.20;;;;;;10536793;28;20254;-77
2022/02/01 21:55:00;;;;;;;1.40;1.30;;;6.50;46.00;;;;;;10541376;28;20322;-77
2022/02/01 22:00:06;;;;;;;1.40;1.30;;;6.60;46.20;;;;;;10538588;28;20285;-77
2022/02/01 22:05:10;;;;;;;1.17;1.13;;;6.60;46.30;;;;;;10539511;28;20238;-77
2022/02/01 22:10:14;;;;;;;1.30;1.20;;;6.60;46.20;;;;;;10538806;28;20246;-76
2022/02/01 22:15:19;;;;;;;0.90;0.90;;;6.70;46.10;;;;;;10541593;28;20255;-77
2022/02/01 22:20:23;;;;;;;1.00;1.00;;;6.70;46.30;;;;;;10540560;28;20406;-77
2022/02/01 22:25:26;;;;;;;0.90;0.90;;;6.80;46.20;;;;;;10540304;28;20249;-75
2022/02/01 22:30:30;;;;;;;1.17;1.07;;;6.80;46.20;;;;;;10540151;28;20643;-75
2022/02/01 22:35:35;;;;;;;1.10;1.10;;;6.90;46.50;;;;;;10537835;28;20818;-76
2022/02/01 22:40:40;;;;;;;1.30;1.20;;;6.90;46.40;;;;;;10538297;28;20235;-76
2022/02/01 22:45:44;;;;;;;1.30;1.20;;;6.90;46.30;;;;;;10538889;28;20234;-76
2022/02/01 22:50:48;;;;;;;1.00;1.00;;;7.00;46.60;;;;;;10538155;28;20227;-76
2022/02/01 22:55:53;;;;;;;1.30;1.20;;;7.00;46.50;;;;;;10519925;28;20322;-76
2022/02/01 23:00:57;;;;;;;1.10;1.10;;;7.10;46.80;;;;;;10540251;28;20238;-76
2022/02/01 23:06:04;;;;;;;1.23;1.10;;;7.10;46.80;;;;;;10540847;28;20231;-75
2022/02/01 23:11:17;;;;;;;1.00;1.00;;;7.20;46.60;;;;;;10541286;28;20259;-75
2022/02/01 23:21:43;;;;;;;1.27;1.17;;;7.20;46.50;;;;;;10540223;28;20227;-76
2022/02/01 23:26:48;;;;;;;1.23;1.13;;;7.30;46.40;;;;;;10539902;28;20231;-75
2022/02/01 23:31:56;;;;;;;1.10;1.10;;;7.30;46.50;;;;;;10540745;28;20616;-76
2022/02/01 23:47:58;;;;;;;1.43;1.30;;;7.40;47.20;;;;;;10469610;28;20227;-76
2022/02/01 23:53:02;;;;;;;1.40;1.30;;;7.40;46.70;;;;;;10538421;28;20306;-76
2022/02/01 23:58:10;;;;;;;1.37;1.27;;;7.50;46.50;;;;;;10537050;28;20232;-76
